sensor_id;sensor_type;location;lat;lon;timestamp;P1;durP1;ratioP1;P2;durP2;ratioP2
17832;SDS011;9041;49.718;21.798;2023-10-19T00:01:47;12.83;;;6.70;;
17832;SDS011;9041;49.718;21.798;2023-10-19T00:04:14;14.13;;;6.93;;
17832;SDS011;9041;49.718;21.798;2023-10-19T00:06:40;14.83;;;6.53;;
17832;SDS011;9041;49.718;21.798;2023-10-19T00:09:06;16.27;;;7.23;;
17832;SDS011;9041;49.718;21.798;2023-10-19T00:11:36;13.13;;;6.00;;
17832;SDS011;9041;49.718;21.798;2023-10-19T00:14:07;13.73;;;6.57;;
17832;SDS011;9041;49.718;21.798;2023-10-19T00:16:41;12.87;;;6.00;;
17832;SDS011;9041;49.718;21.798;2023-10-19T00:19:09;13.23;;;6.57;;
17832;SDS011;9041;49.718;21.798;2023-10-19T00:21:36;11.77;;;6.73;;
17832;SDS011;9041;49.718;21.798;2023-10-19T00:24:16;10.90;;;6.47;;
17832;SDS011;9041;49.718;21.798;2023-10-19T00:26:43;11.97;;;5.77;;
17832;SDS011;9041;49.718;21.798;2023-10-19T00:29:11;12.17;;;6.60;;
17832;SDS011;9041;49.718;21.798;2023-10-19T00:31:55;13.83;;;6.47;;
17832;SDS011;9041;49.718;21.798;2023-10-19T00:34:23;17.97;;;7.20;;
17832;SDS011;9041;49.718;21.798;2023-10-19T00:36:50;13.27;;;6.83;;
17832;SDS011;9041;49.718;21.798;2023-10-19T00:39:17;13.93;;;6.70;;
17832;SDS011;9041;49.718;21.798;2023-10-19T00:41:47;15.07;;;7.20;;
17832;SDS011;9041;49.718;21.798;2023-10-19T00:44:16;16.67;;;8.07;;
17832;SDS011;9041;49.718;21.798;2023-10-19T00:46:47;17.10;;;8.97;;
17832;SDS011;9041;49.718;21.798;2023-10-19T00:49:20;16.37;;;7.63;;
17832;SDS011;9041;49.718;21.798;2023-10-19T00:51:49;18.43;;;8.57;;
17832;SDS011;9041;49.718;21.798;2023-10-19T00:54:28;16.37;;;8.37;;
17832;SDS011;9041;49.718;21.798;2023-10-19T00:56:58;15.53;;;7.90;;
17832;SDS011;9041;49.718;21.798;2023-10-19T00:59:31;19.27;;;7.63;;
17832;SDS011;9041;49.718;21.798;2023-10-19T01:02:03;18.53;;;8.00;;
17832;SDS011;9041;49.718;21.798;2023-10-19T01:04:44;12.60;;;6.90;;
17832;SDS011;9041;49.718;21.798;2023-10-19T01:07:16;14.87;;;7.07;;
17832;SDS011;9041;49.718;21.798;2023-10-19T01:09:48;17.90;;;8.27;;
17832;SDS011;9041;49.718;21.798;2023-10-19T01:12:18;17.77;;;7.23;;
17832;SDS011;9041;49.718;21.798;2023-10-19T01:15:03;15.10;;;7.37;;
17832;SDS011;9041;49.718;21.798;2023-10-19T01:17:32;14.03;;;6.90;;
17832;SDS011;9041;49.718;21.798;2023-10-19T01:20:03;14.17;;;6.77;;
17832;SDS011;9041;49.718;21.798;2023-10-19T01:22:46;12.57;;;7.07;;
17832;SDS011;9041;49.718;21.798;2023-10-19T01:25:15;12.37;;;6.83;;
17832;SDS011;9041;49.718;21.798;2023-10-19T01:27:43;19.67;;;8.03;;
17832;SDS011;9041;49.718;21.798;2023-10-19T01:30:10;17.50;;;7.77;;
17832;SDS011;9041;49.718;21.798;2023-10-19T01:32:39;17.53;;;7.43;;
17832;SDS011;9041;49.718;21.798;2023-10-19T01:35:07;13.83;;;6.80;;
17832;SDS011;9041;49.718;21.798;2023-10-19T01:37:36;16.43;;;6.93;;
17832;SDS011;9041;49.718;21.798;2023-10-19T01:40:08;11.67;;;6.73;;
17832;SDS011;9041;49.718;21.798;2023-10-19T01:42:34;16.53;;;6.60;;
17832;SDS011;9041;49.718;21.798;2023-10-19T01:45:01;16.80;;;7.83;;
17832;SDS011;9041;49.718;21.798;2023-10-19T01:47:27;16.80;;;7.47;;
17832;SDS011;9041;49.718;21.798;2023-10-19T01:49:54;17.10;;;7.73;;
17832;SDS011;9041;49.718;21.798;2023-10-19T01:52:20;15.10;;;7.90;;
17832;SDS011;9041;49.718;21.798;2023-10-19T01:54:49;14.67;;;7.40;;
17832;SDS011;9041;49.718;21.798;2023-10-19T01:57:25;14.80;;;7.70;;
17832;SDS011;9041;49.718;21.798;2023-10-19T01:59:52;19.80;;;8.63;;
17832;SDS011;9041;49.718;21.798;2023-10-19T02:02:17;15.77;;;7.93;;
17832;SDS011;9041;49.718;21.798;2023-10-19T02:04:47;15.23;;;7.30;;
17832;SDS011;9041;49.718;21.798;2023-10-19T02:07:16;14.27;;;7.30;;
17832;SDS011;9041;49.718;21.798;2023-10-19T02:09:44;13.53;;;7.73;;
17832;SDS011;9041;49.718;21.798;2023-10-19T02:12:09;18.73;;;8.27;;
17832;SDS011;9041;49.718;21.798;2023-10-19T02:14:37;16.87;;;6.80;;
17832;SDS011;9041;49.718;21.798;2023-10-19T02:17:04;18.43;;;7.77;;
17832;SDS011;9041;49.718;21.798;2023-10-19T02:19:31;20.60;;;8.90;;
17832;SDS011;9041;49.718;21.798;2023-10-19T02:21:58;14.80;;;7.67;;
17832;SDS011;9041;49.718;21.798;2023-10-19T02:24:28;16.80;;;8.07;;
17832;SDS011;9041;49.718;21.798;2023-10-19T02:26:54;15.87;;;7.17;;
17832;SDS011;9041;49.718;21.798;2023-10-19T02:29:22;17.63;;;7.13;;
17832;SDS011;9041;49.718;21.798;2023-10-19T02:31:50;16.03;;;7.93;;
17832;SDS011;9041;49.718;21.798;2023-10-19T02:34:18;15.33;;;7.30;;
17832;SDS011;9041;49.718;21.798;2023-10-19T02:36:44;16.00;;;7.57;;
17832;SDS011;9041;49.718;21.798;2023-10-19T02:39:13;17.17;;;7.90;;
17832;SDS011;9041;49.718;21.798;2023-10-19T02:41:39;16.33;;;8.07;;
17832;SDS011;9041;49.718;21.798;2023-10-19T02:44:07;18.87;;;7.43;;
17832;SDS011;9041;49.718;21.798;2023-10-19T02:46:34;17.93;;;8.33;;
17832;SDS011;9041;49.718;21.798;2023-10-19T02:49:05;15.90;;;7.57;;
17832;SDS011;9041;49.718;21.798;2023-10-19T02:51:35;16.17;;;7.47;;
17832;SDS011;9041;49.718;21.798;2023-10-19T02:54:02;15.67;;;7.23;;
17832;SDS011;9041;49.718;21.798;2023-10-19T02:56:31;16.07;;;7.70;;
17832;SDS011;9041;49.718;21.798;2023-10-19T02:59:00;15.60;;;8.03;;
17832;SDS011;9041;49.718;21.798;2023-10-19T03:01:27;15.67;;;7.50;;
17832;SDS011;9041;49.718;21.798;2023-10-19T03:03:56;19.07;;;8.03;;
17832;SDS011;9041;49.718;21.798;2023-10-19T03:06:26;14.93;;;7.37;;
17832;SDS011;9041;49.718;21.798;2023-10-19T03:08:57;15.00;;;6.90;;
17832;SDS011;9041;49.718;21.798;2023-10-19T03:11:23;14.97;;;7.83;;
17832;SDS011;9041;49.718;21.798;2023-10-19T03:13:49;20.03;;;7.60;;
17832;SDS011;9041;49.718;21.798;2023-10-19T03:16:17;15.97;;;7.60;;
17832;SDS011;9041;49.718;21.798;2023-10-19T03:18:43;19.57;;;8.23;;
17832;SDS011;9041;49.718;21.798;2023-10-19T03:21:09;19.03;;;7.77;;
17832;SDS011;9041;49.718;21.798;2023-10-19T03:23:37;18.63;;;7.43;;
17832;SDS011;9041;49.718;21.798;2023-10-19T03:26:07;17.97;;;7.67;;
17832;SDS011;9041;49.718;21.798;2023-10-19T03:28:52;15.53;;;7.40;;
17832;SDS011;9041;49.718;21.798;2023-10-19T03:31:21;13.50;;;6.97;;
17832;SDS011;9041;49.718;21.798;2023-10-19T03:33:48;16.87;;;7.33;;
17832;SDS011;9041;49.718;21.798;2023-10-19T03:36:19;12.53;;;6.90;;
17832;SDS011;9041;49.718;21.798;2023-10-19T03:38:48;15.03;;;6.77;;
17832;SDS011;9041;49.718;21.798;2023-10-19T03:41:16;15.60;;;6.60;;
17832;SDS011;9041;49.718;21.798;2023-10-19T03:43:46;11.83;;;6.63;;
17832;SDS011;9041;49.718;21.798;2023-10-19T03:46:14;15.40;;;7.07;;
17832;SDS011;9041;49.718;21.798;2023-10-19T03:48:48;16.73;;;6.90;;
17832;SDS011;9041;49.718;21.798;2023-10-19T03:51:14;19.13;;;7.07;;
17832;SDS011;9041;49.718;21.798;2023-10-19T03:53:42;12.90;;;6.23;;
17832;SDS011;9041;49.718;21.798;2023-10-19T03:56:15;18.37;;;7.37;;
17832;SDS011;9041;49.718;21.798;2023-10-19T03:58:42;12.67;;;7.00;;
17832;SDS011;9041;49.718;21.798;2023-10-19T04:01:13;15.47;;;7.03;;
17832;SDS011;9041;49.718;21.798;2023-10-19T04:03:41;10.80;;;6.47;;
17832;SDS011;9041;49.718;21.798;2023-10-19T04:06:08;16.60;;;7.03;;
17832;SDS011;9041;49.718;21.798;2023-10-19T04:08:39;17.33;;;7.63;;
17832;SDS011;9041;49.718;21.798;2023-10-19T04:11:05;12.73;;;6.70;;
17832;SDS011;9041;49.718;21.798;2023-10-19T04:13:38;15.40;;;6.93;;
17832;SDS011;9041;49.718;21.798;2023-10-19T04:16:05;17.77;;;7.47;;
17832;SDS011;9041;49.718;21.798;2023-10-19T04:18:35;14.20;;;7.33;;
17832;SDS011;9041;49.718;21.798;2023-10-19T04:21:05;18.90;;;7.37;;
17832;SDS011;9041;49.718;21.798;2023-10-19T04:23:32;15.40;;;7.77;;
17832;SDS011;9041;49.718;21.798;2023-10-19T04:26:01;18.87;;;9.33;;
17832;SDS011;9041;49.718;21.798;2023-10-19T04:28:37;19.00;;;7.57;;
17832;SDS011;9041;49.718;21.798;2023-10-19T04:31:09;20.17;;;9.03;;
17832;SDS011;9041;49.718;21.798;2023-10-19T04:33:42;15.63;;;7.70;;
17832;SDS011;9041;49.718;21.798;2023-10-19T04:36:11;17.13;;;8.17;;
17832;SDS011;9041;49.718;21.798;2023-10-19T04:38:39;17.57;;;9.00;;
17832;SDS011;9041;49.718;21.798;2023-10-19T04:41:06;17.17;;;8.43;;
17832;SDS011;9041;49.718;21.798;2023-10-19T04:43:33;21.33;;;9.67;;
17832;SDS011;9041;49.718;21.798;2023-10-19T04:46:05;20.80;;;10.60;;
17832;SDS011;9041;49.718;21.798;2023-10-19T04:48:36;15.27;;;8.23;;
17832;SDS011;9041;49.718;21.798;2023-10-19T04:51:04;14.23;;;7.67;;
17832;SDS011;9041;49.718;21.798;2023-10-19T04:53:31;18.40;;;7.73;;
17832;SDS011;9041;49.718;21.798;2023-10-19T04:55:58;20.67;;;9.73;;
17832;SDS011;9041;49.718;21.798;2023-10-19T04:58:25;24.10;;;11.57;;
17832;SDS011;9041;49.718;21.798;2023-10-19T05:00:53;29.67;;;12.97;;
17832;SDS011;9041;49.718;21.798;2023-10-19T05:03:21;18.73;;;9.53;;
17832;SDS011;9041;49.718;21.798;2023-10-19T05:05:48;24.00;;;12.33;;
17832;SDS011;9041;49.718;21.798;2023-10-19T05:08:16;26.90;;;9.77;;
17832;SDS011;9041;49.718;21.798;2023-10-19T05:10:43;22.43;;;10.33;;
17832;SDS011;9041;49.718;21.798;2023-10-19T05:13:10;25.33;;;9.77;;
17832;SDS011;9041;49.718;21.798;2023-10-19T05:15:36;27.03;;;12.37;;
17832;SDS011;9041;49.718;21.798;2023-10-19T05:18:04;21.57;;;10.73;;
17832;SDS011;9041;49.718;21.798;2023-10-19T05:20:32;33.57;;;17.13;;
17832;SDS011;9041;49.718;21.798;2023-10-19T05:23:05;26.37;;;13.30;;
17832;SDS011;9041;49.718;21.798;2023-10-19T05:25:33;19.00;;;9.30;;
17832;SDS011;9041;49.718;21.798;2023-10-19T05:28:00;20.00;;;8.30;;
17832;SDS011;9041;49.718;21.798;2023-10-19T05:30:27;17.27;;;9.30;;
17832;SDS011;9041;49.718;21.798;2023-10-19T05:32:55;16.13;;;8.73;;
17832;SDS011;9041;49.718;21.798;2023-10-19T05:35:22;16.97;;;8.53;;
17832;SDS011;9041;49.718;21.798;2023-10-19T05:37:52;17.70;;;7.80;;
17832;SDS011;9041;49.718;21.798;2023-10-19T05:40:20;16.83;;;7.90;;
17832;SDS011;9041;49.718;21.798;2023-10-19T05:42:48;15.47;;;7.70;;
17832;SDS011;9041;49.718;21.798;2023-10-19T05:45:15;14.57;;;7.33;;
17832;SDS011;9041;49.718;21.798;2023-10-19T05:47:42;15.73;;;8.00;;
17832;SDS011;9041;49.718;21.798;2023-10-19T05:50:10;13.83;;;6.53;;
17832;SDS011;9041;49.718;21.798;2023-10-19T05:52:39;15.53;;;7.17;;
17832;SDS011;9041;49.718;21.798;2023-10-19T05:55:09;17.57;;;7.20;;
17832;SDS011;9041;49.718;21.798;2023-10-19T05:57:37;15.73;;;7.33;;
17832;SDS011;9041;49.718;21.798;2023-10-19T06:00:06;18.60;;;8.00;;
17832;SDS011;9041;49.718;21.798;2023-10-19T06:02:53;17.20;;;6.87;;
17832;SDS011;9041;49.718;21.798;2023-10-19T06:05:20;17.13;;;7.47;;
17832;SDS011;9041;49.718;21.798;2023-10-19T06:07:48;17.33;;;7.10;;
17832;SDS011;9041;49.718;21.798;2023-10-19T06:10:17;14.07;;;6.23;;
17832;SDS011;9041;49.718;21.798;2023-10-19T06:12:45;14.00;;;7.07;;
17832;SDS011;9041;49.718;21.798;2023-10-19T06:15:13;14.50;;;6.93;;
17832;SDS011;9041;49.718;21.798;2023-10-19T06:17:41;14.33;;;7.10;;
17832;SDS011;9041;49.718;21.798;2023-10-19T06:20:09;13.93;;;7.07;;
17832;SDS011;9041;49.718;21.798;2023-10-19T06:22:45;13.40;;;6.97;;
17832;SDS011;9041;49.718;21.798;2023-10-19T06:25:17;12.30;;;6.63;;
17832;SDS011;9041;49.718;21.798;2023-10-19T06:27:44;12.40;;;6.27;;
17832;SDS011;9041;49.718;21.798;2023-10-19T06:30:12;13.70;;;6.27;;
17832;SDS011;9041;49.718;21.798;2023-10-19T06:32:42;13.33;;;6.70;;
17832;SDS011;9041;49.718;21.798;2023-10-19T06:35:11;13.53;;;6.10;;
17832;SDS011;9041;49.718;21.798;2023-10-19T06:37:38;13.93;;;7.03;;
17832;SDS011;9041;49.718;21.798;2023-10-19T06:40:05;11.37;;;6.40;;
17832;SDS011;9041;49.718;21.798;2023-10-19T06:42:34;15.50;;;6.90;;
17832;SDS011;9041;49.718;21.798;2023-10-19T06:45:01;14.73;;;6.50;;
17832;SDS011;9041;49.718;21.798;2023-10-19T06:47:28;14.90;;;7.23;;
17832;SDS011;9041;49.718;21.798;2023-10-19T06:49:55;14.63;;;6.80;;
17832;SDS011;9041;49.718;21.798;2023-10-19T06:52:22;15.43;;;6.30;;
17832;SDS011;9041;49.718;21.798;2023-10-19T06:54:49;14.30;;;6.80;;
17832;SDS011;9041;49.718;21.798;2023-10-19T06:57:16;12.47;;;6.37;;
17832;SDS011;9041;49.718;21.798;2023-10-19T06:59:44;13.37;;;7.00;;
17832;SDS011;9041;49.718;21.798;2023-10-19T07:02:10;18.20;;;7.00;;
17832;SDS011;9041;49.718;21.798;2023-10-19T07:04:38;16.20;;;6.77;;
17832;SDS011;9041;49.718;21.798;2023-10-19T07:07:04;21.73;;;8.43;;
17832;SDS011;9041;49.718;21.798;2023-10-19T07:09:31;17.60;;;7.17;;
17832;SDS011;9041;49.718;21.798;2023-10-19T07:11:59;13.30;;;7.03;;
17832;SDS011;9041;49.718;21.798;2023-10-19T07:14:26;14.80;;;6.35;;
17832;SDS011;9041;49.718;21.798;2023-10-19T07:16:54;15.10;;;6.25;;
17832;SDS011;9041;49.718;21.798;2023-10-19T07:19:21;12.48;;;6.30;;
17832;SDS011;9041;49.718;21.798;2023-10-19T07:21:48;11.13;;;5.77;;
17832;SDS011;9041;49.718;21.798;2023-10-19T07:24:22;11.05;;;5.85;;
17832;SDS011;9041;49.718;21.798;2023-10-19T07:26:49;16.27;;;5.40;;
17832;SDS011;9041;49.718;21.798;2023-10-19T07:29:30;11.05;;;5.50;;
17832;SDS011;9041;49.718;21.798;2023-10-19T07:32:00;26.13;;;10.82;;
17832;SDS011;9041;49.718;21.798;2023-10-19T07:34:27;21.77;;;7.80;;
17832;SDS011;9041;49.718;21.798;2023-10-19T07:36:54;15.38;;;6.45;;
17832;SDS011;9041;49.718;21.798;2023-10-19T07:39:24;15.75;;;6.10;;
17832;SDS011;9041;49.718;21.798;2023-10-19T07:41:51;39.10;;;10.35;;
17832;SDS011;9041;49.718;21.798;2023-10-19T07:44:18;18.80;;;7.95;;
17832;SDS011;9041;49.718;21.798;2023-10-19T07:46:45;13.98;;;6.03;;
17832;SDS011;9041;49.718;21.798;2023-10-19T07:49:13;23.15;;;5.75;;
17832;SDS011;9041;49.718;21.798;2023-10-19T07:51:41;18.55;;;7.53;;
17832;SDS011;9041;49.718;21.798;2023-10-19T07:54:10;9.25;;;4.47;;
17832;SDS011;9041;49.718;21.798;2023-10-19T07:56:37;11.55;;;4.85;;
17832;SDS011;9041;49.718;21.798;2023-10-19T07:59:05;12.18;;;5.38;;
17832;SDS011;9041;49.718;21.798;2023-10-19T08:01:32;11.68;;;5.03;;
17832;SDS011;9041;49.718;21.798;2023-10-19T08:03:59;8.95;;;4.85;;
17832;SDS011;9041;49.718;21.798;2023-10-19T08:06:27;11.35;;;5.18;;
17832;SDS011;9041;49.718;21.798;2023-10-19T08:08:54;11.48;;;6.05;;
17832;SDS011;9041;49.718;21.798;2023-10-19T08:11:21;13.43;;;5.32;;
17832;SDS011;9041;49.718;21.798;2023-10-19T08:13:48;13.55;;;5.45;;
17832;SDS011;9041;49.718;21.798;2023-10-19T08:16:14;14.10;;;6.10;;
17832;SDS011;9041;49.718;21.798;2023-10-19T08:18:41;12.10;;;5.68;;
17832;SDS011;9041;49.718;21.798;2023-10-19T08:21:08;14.15;;;6.20;;
17832;SDS011;9041;49.718;21.798;2023-10-19T08:23:36;12.07;;;5.57;;
17832;SDS011;9041;49.718;21.798;2023-10-19T08:26:03;11.65;;;5.28;;
17832;SDS011;9041;49.718;21.798;2023-10-19T08:28:31;10.32;;;5.53;;
17832;SDS011;9041;49.718;21.798;2023-10-19T08:30:58;12.65;;;5.40;;
17832;SDS011;9041;49.718;21.798;2023-10-19T08:33:26;13.88;;;5.57;;
17832;SDS011;9041;49.718;21.798;2023-10-19T08:35:55;12.70;;;5.60;;
17832;SDS011;9041;49.718;21.798;2023-10-19T08:38:22;12.55;;;5.15;;
17832;SDS011;9041;49.718;21.798;2023-10-19T08:40:51;14.70;;;6.07;;
17832;SDS011;9041;49.718;21.798;2023-10-19T08:43:18;13.93;;;6.50;;
17832;SDS011;9041;49.718;21.798;2023-10-19T08:45:46;13.88;;;6.93;;
17832;SDS011;9041;49.718;21.798;2023-10-19T08:48:13;15.98;;;7.18;;
17832;SDS011;9041;49.718;21.798;2023-10-19T08:50:43;13.68;;;5.40;;
17832;SDS011;9041;49.718;21.798;2023-10-19T08:53:11;12.38;;;5.47;;
17832;SDS011;9041;49.718;21.798;2023-10-19T08:55:39;9.95;;;5.28;;
17832;SDS011;9041;49.718;21.798;2023-10-19T08:58:08;10.93;;;5.35;;
17832;SDS011;9041;49.718;21.798;2023-10-19T09:00:45;13.13;;;5.35;;
17832;SDS011;9041;49.718;21.798;2023-10-19T09:03:13;11.05;;;5.07;;
17832;SDS011;9041;49.718;21.798;2023-10-19T09:05:41;11.27;;;5.18;;
17832;SDS011;9041;49.718;21.798;2023-10-19T09:08:09;10.13;;;4.95;;
17832;SDS011;9041;49.718;21.798;2023-10-19T09:10:42;12.45;;;5.50;;
17832;SDS011;9041;49.718;21.798;2023-10-19T09:13:11;9.85;;;5.20;;
17832;SDS011;9041;49.718;21.798;2023-10-19T09:15:41;12.75;;;5.10;;
17832;SDS011;9041;49.718;21.798;2023-10-19T09:18:14;9.57;;;5.18;;
17832;SDS011;9041;49.718;21.798;2023-10-19T09:20:43;10.93;;;5.70;;
17832;SDS011;9041;49.718;21.798;2023-10-19T09:23:18;8.60;;;5.65;;
17832;SDS011;9041;49.718;21.798;2023-10-19T09:25:46;16.27;;;6.30;;
17832;SDS011;9041;49.718;21.798;2023-10-19T09:28:14;11.18;;;5.53;;
17832;SDS011;9041;49.718;21.798;2023-10-19T09:30:41;11.40;;;6.53;;
17832;SDS011;9041;49.718;21.798;2023-10-19T09:33:09;15.52;;;6.18;;
17832;SDS011;9041;49.718;21.798;2023-10-19T09:35:35;13.65;;;5.47;;
17832;SDS011;9041;49.718;21.798;2023-10-19T09:38:03;12.85;;;5.95;;
17832;SDS011;9041;49.718;21.798;2023-10-19T09:40:31;9.20;;;5.35;;
17832;SDS011;9041;49.718;21.798;2023-10-19T09:42:58;15.60;;;6.28;;
17832;SDS011;9041;49.718;21.798;2023-10-19T09:45:29;12.75;;;5.70;;
17832;SDS011;9041;49.718;21.798;2023-10-19T09:47:56;12.27;;;5.68;;
17832;SDS011;9041;49.718;21.798;2023-10-19T09:50:27;9.95;;;5.78;;
17832;SDS011;9041;49.718;21.798;2023-10-19T09:52:54;10.48;;;5.43;;
17832;SDS011;9041;49.718;21.798;2023-10-19T09:55:22;14.60;;;5.80;;
17832;SDS011;9041;49.718;21.798;2023-10-19T09:57:52;11.27;;;5.47;;
17832;SDS011;9041;49.718;21.798;2023-10-19T10:00:22;13.68;;;5.82;;
17832;SDS011;9041;49.718;21.798;2023-10-19T10:02:51;9.63;;;5.43;;
17832;SDS011;9041;49.718;21.798;2023-10-19T10:08:27;12.13;;;5.50;;
17832;SDS011;9041;49.718;21.798;2023-10-19T10:10:56;11.13;;;6.22;;
17832;SDS011;9041;49.718;21.798;2023-10-19T10:13:38;11.75;;;6.15;;
17832;SDS011;9041;49.718;21.798;2023-10-19T10:16:05;13.35;;;6.00;;
17832;SDS011;9041;49.718;21.798;2023-10-19T10:18:34;10.40;;;5.38;;
17832;SDS011;9041;49.718;21.798;2023-10-19T10:21:05;11.02;;;6.03;;
17832;SDS011;9041;49.718;21.798;2023-10-19T10:23:34;8.57;;;5.22;;
17832;SDS011;9041;49.718;21.798;2023-10-19T10:26:07;13.75;;;5.55;;
17832;SDS011;9041;49.718;21.798;2023-10-19T10:28:35;9.00;;;5.05;;
17832;SDS011;9041;49.718;21.798;2023-10-19T10:31:11;9.68;;;5.25;;
17832;SDS011;9041;49.718;21.798;2023-10-19T10:33:44;10.35;;;5.00;;
17832;SDS011;9041;49.718;21.798;2023-10-19T10:36:12;9.90;;;5.32;;
17832;SDS011;9041;49.718;21.798;2023-10-19T10:38:40;11.18;;;5.75;;
17832;SDS011;9041;49.718;21.798;2023-10-19T10:41:07;9.25;;;5.20;;
17832;SDS011;9041;49.718;21.798;2023-10-19T10:43:47;10.65;;;5.78;;
17832;SDS011;9041;49.718;21.798;2023-10-19T10:46:16;8.82;;;4.82;;
17832;SDS011;9041;49.718;21.798;2023-10-19T10:48:45;9.15;;;4.70;;
17832;SDS011;9041;49.718;21.798;2023-10-19T10:51:17;10.30;;;4.82;;
17832;SDS011;9041;49.718;21.798;2023-10-19T10:53:46;8.77;;;4.85;;
17832;SDS011;9041;49.718;21.798;2023-10-19T10:56:13;8.27;;;4.70;;
17832;SDS011;9041;49.718;21.798;2023-10-19T10:58:39;9.07;;;4.55;;
17832;SDS011;9041;49.718;21.798;2023-10-19T11:01:06;12.73;;;5.03;;
17832;SDS011;9041;49.718;21.798;2023-10-19T11:03:33;8.70;;;4.60;;
17832;SDS011;9041;49.718;21.798;2023-10-19T11:06:05;9.13;;;5.03;;
17832;SDS011;9041;49.718;21.798;2023-10-19T11:08:33;8.73;;;5.38;;
17832;SDS011;9041;49.718;21.798;2023-10-19T11:11:03;11.85;;;5.68;;
17832;SDS011;9041;49.718;21.798;2023-10-19T11:13:31;14.02;;;5.32;;
17832;SDS011;9041;49.718;21.798;2023-10-19T11:16:00;8.38;;;4.78;;
17832;SDS011;9041;49.718;21.798;2023-10-19T11:18:31;8.95;;;4.68;;
17832;SDS011;9041;49.718;21.798;2023-10-19T11:21:00;8.40;;;4.88;;
17832;SDS011;9041;49.718;21.798;2023-10-19T11:23:37;8.25;;;4.78;;
17832;SDS011;9041;49.718;21.798;2023-10-19T11:26:06;7.97;;;4.20;;
17832;SDS011;9041;49.718;21.798;2023-10-19T11:28:33;7.28;;;4.47;;
17832;SDS011;9041;49.718;21.798;2023-10-19T11:31:10;7.00;;;3.50;;
17832;SDS011;9041;49.718;21.798;2023-10-19T11:33:37;5.72;;;3.70;;
17832;SDS011;9041;49.718;21.798;2023-10-19T11:36:05;5.35;;;3.60;;
17832;SDS011;9041;49.718;21.798;2023-10-19T11:38:31;4.68;;;3.50;;
17832;SDS011;9041;49.718;21.798;2023-10-19T11:40:59;6.25;;;3.28;;
17832;SDS011;9041;49.718;21.798;2023-10-19T11:43:26;5.38;;;3.35;;
17832;SDS011;9041;49.718;21.798;2023-10-19T11:45:52;4.38;;;2.95;;
17832;SDS011;9041;49.718;21.798;2023-10-19T11:48:19;6.13;;;3.40;;
17832;SDS011;9041;49.718;21.798;2023-10-19T11:50:47;4.72;;;3.42;;
17832;SDS011;9041;49.718;21.798;2023-10-19T11:53:13;9.82;;;3.83;;
17832;SDS011;9041;49.718;21.798;2023-10-19T11:55:40;6.60;;;3.55;;
17832;SDS011;9041;49.718;21.798;2023-10-19T11:58:08;5.75;;;3.75;;
17832;SDS011;9041;49.718;21.798;2023-10-19T12:00:39;6.60;;;3.30;;
17832;SDS011;9041;49.718;21.798;2023-10-19T12:03:08;5.63;;;3.22;;
17832;SDS011;9041;49.718;21.798;2023-10-19T12:05:35;6.32;;;3.55;;
17832;SDS011;9041;49.718;21.798;2023-10-19T12:08:03;8.65;;;4.13;;
17832;SDS011;9041;49.718;21.798;2023-10-19T12:10:30;5.45;;;3.15;;
17832;SDS011;9041;49.718;21.798;2023-10-19T12:13:00;7.20;;;3.83;;
17832;SDS011;9041;49.718;21.798;2023-10-19T12:15:31;9.88;;;4.97;;
17832;SDS011;9041;49.718;21.798;2023-10-19T12:17:58;8.45;;;4.13;;
17832;SDS011;9041;49.718;21.798;2023-10-19T12:20:25;10.15;;;3.65;;
17832;SDS011;9041;49.718;21.798;2023-10-19T12:22:52;10.02;;;4.07;;
17832;SDS011;9041;49.718;21.798;2023-10-19T12:25:19;14.25;;;4.43;;
17832;SDS011;9041;49.718;21.798;2023-10-19T12:27:54;16.08;;;5.70;;
17832;SDS011;9041;49.718;21.798;2023-10-19T12:30:21;20.88;;;8.63;;
17832;SDS011;9041;49.718;21.798;2023-10-19T12:32:52;17.65;;;8.05;;
17832;SDS011;9041;49.718;21.798;2023-10-19T12:35:19;20.60;;;8.05;;
17832;SDS011;9041;49.718;21.798;2023-10-19T12:37:50;23.00;;;8.02;;
17832;SDS011;9041;49.718;21.798;2023-10-19T12:40:17;15.13;;;6.55;;
17832;SDS011;9041;49.718;21.798;2023-10-19T12:42:54;8.20;;;4.20;;
17832;SDS011;9041;49.718;21.798;2023-10-19T12:45:21;10.70;;;5.00;;
17832;SDS011;9041;49.718;21.798;2023-10-19T12:47:48;9.48;;;4.18;;
17832;SDS011;9041;49.718;21.798;2023-10-19T12:50:18;8.13;;;4.20;;
17832;SDS011;9041;49.718;21.798;2023-10-19T12:52:47;7.13;;;3.53;;
17832;SDS011;9041;49.718;21.798;2023-10-19T12:55:14;9.68;;;4.22;;
17832;SDS011;9041;49.718;21.798;2023-10-19T12:57:41;23.83;;;10.32;;
17832;SDS011;9041;49.718;21.798;2023-10-19T13:00:08;41.50;;;16.50;;
17832;SDS011;9041;49.718;21.798;2023-10-19T13:02:49;19.95;;;9.73;;
17832;SDS011;9041;49.718;21.798;2023-10-19T13:05:16;23.08;;;9.85;;
17832;SDS011;9041;49.718;21.798;2023-10-19T13:07:45;20.83;;;6.65;;
17832;SDS011;9041;49.718;21.798;2023-10-19T13:10:12;15.40;;;6.97;;
17832;SDS011;9041;49.718;21.798;2023-10-19T13:12:38;20.15;;;7.47;;
17832;SDS011;9041;49.718;21.798;2023-10-19T13:15:06;18.98;;;7.55;;
17832;SDS011;9041;49.718;21.798;2023-10-19T13:17:38;19.30;;;7.45;;
17832;SDS011;9041;49.718;21.798;2023-10-19T13:20:05;16.70;;;7.78;;
17832;SDS011;9041;49.718;21.798;2023-10-19T13:22:42;12.68;;;6.70;;
17832;SDS011;9041;49.718;21.798;2023-10-19T13:25:09;10.70;;;5.13;;
17832;SDS011;9041;49.718;21.798;2023-10-19T13:27:38;11.45;;;5.65;;
17832;SDS011;9041;49.718;21.798;2023-10-19T13:30:07;9.15;;;4.53;;
17832;SDS011;9041;49.718;21.798;2023-10-19T13:32:35;11.55;;;4.38;;
17832;SDS011;9041;49.718;21.798;2023-10-19T13:35:05;10.85;;;5.53;;
17832;SDS011;9041;49.718;21.798;2023-10-19T13:37:32;17.88;;;8.15;;
17832;SDS011;9041;49.718;21.798;2023-10-19T13:40:01;10.75;;;6.20;;
17832;SDS011;9041;49.718;21.798;2023-10-19T13:42:34;10.48;;;3.75;;
17832;SDS011;9041;49.718;21.798;2023-10-19T13:45:00;4.10;;;2.80;;
17832;SDS011;9041;49.718;21.798;2023-10-19T13:47:27;16.60;;;7.03;;
17832;SDS011;9041;49.718;21.798;2023-10-19T13:49:55;14.35;;;7.00;;
17832;SDS011;9041;49.718;21.798;2023-10-19T13:52:22;9.50;;;4.57;;
17832;SDS011;9041;49.718;21.798;2023-10-19T13:54:49;15.02;;;5.65;;
17832;SDS011;9041;49.718;21.798;2023-10-19T13:57:20;12.07;;;5.88;;
17832;SDS011;9041;49.718;21.798;2023-10-19T13:59:47;11.68;;;5.20;;
17832;SDS011;9041;49.718;21.798;2023-10-19T14:02:15;5.70;;;3.15;;
17832;SDS011;9041;49.718;21.798;2023-10-19T14:04:42;4.80;;;2.88;;
17832;SDS011;9041;49.718;21.798;2023-10-19T14:07:11;5.68;;;3.00;;
17832;SDS011;9041;49.718;21.798;2023-10-19T14:09:38;5.65;;;3.53;;
17832;SDS011;9041;49.718;21.798;2023-10-19T14:12:04;5.75;;;3.40;;
17832;SDS011;9041;49.718;21.798;2023-10-19T14:14:33;7.35;;;4.45;;
17832;SDS011;9041;49.718;21.798;2023-10-19T14:17:00;25.38;;;7.40;;
17832;SDS011;9041;49.718;21.798;2023-10-19T14:19:26;5.75;;;3.35;;
17832;SDS011;9041;49.718;21.798;2023-10-19T14:21:53;5.45;;;3.47;;
17832;SDS011;9041;49.718;21.798;2023-10-19T14:24:20;6.18;;;3.03;;
17832;SDS011;9041;49.718;21.798;2023-10-19T14:26:47;14.80;;;5.00;;
17832;SDS011;9041;49.718;21.798;2023-10-19T14:29:14;30.17;;;7.45;;
17832;SDS011;9041;49.718;21.798;2023-10-19T14:31:42;16.95;;;5.13;;
17832;SDS011;9041;49.718;21.798;2023-10-19T14:34:09;19.27;;;7.45;;
17832;SDS011;9041;49.718;21.798;2023-10-19T14:36:36;31.17;;;12.38;;
17832;SDS011;9041;49.718;21.798;2023-10-19T14:39:03;13.02;;;6.13;;
17832;SDS011;9041;49.718;21.798;2023-10-19T14:41:30;13.70;;;5.53;;
17832;SDS011;9041;49.718;21.798;2023-10-19T14:43:57;9.82;;;5.13;;
17832;SDS011;9041;49.718;21.798;2023-10-19T14:46:26;8.32;;;4.55;;
17832;SDS011;9041;49.718;21.798;2023-10-19T14:48:55;7.97;;;4.20;;